createdAt,value
2022-10-26T00:00:04.838Z,0.00
2022-10-26T00:01:04.871Z,0.00
2022-10-26T00:02:04.974Z,0.00
2022-10-26T00:03:04.790Z,0.00
2022-10-26T00:04:04.780Z,0.00
2022-10-26T00:05:04.844Z,0.00
2022-10-26T00:06:04.760Z,0.00
2022-10-26T00:07:04.983Z,0.00
2022-10-26T00:08:04.750Z,0.00
2022-10-26T00:09:04.744Z,0.00
2022-10-26T00:10:04.716Z,0.00
2022-10-26T00:11:04.757Z,0.00
2022-10-26T00:12:04.693Z,0.00
2022-10-26T00:13:04.676Z,0.00
2022-10-26T00:14:04.671Z,0.00
2022-10-26T00:15:04.704Z,0.00
2022-10-26T00:16:04.658Z,0.00
2022-10-26T00:17:04.837Z,0.00
2022-10-26T00:18:04.632Z,0.00
2022-10-26T00:19:05.337Z,0.00
2022-10-26T00:20:04.611Z,0.00
2022-10-26T00:21:04.593Z,0.00
2022-10-26T00:22:04.583Z,0.00
2022-10-26T00:23:04.599Z,0.00
2022-10-26T00:24:04.577Z,0.00
2022-10-26T00:25:04.554Z,0.00
2022-10-26T00:26:04.535Z,0.00
2022-10-26T00:27:04.543Z,0.00
2022-10-26T00:28:04.523Z,0.00
2022-10-26T00:29:04.715Z,0.00
2022-10-26T00:30:04.485Z,0.00
2022-10-26T00:31:04.497Z,0.00
2022-10-26T00:32:04.473Z,0.00
2022-10-26T00:33:04.456Z,0.00
2022-10-26T00:34:04.446Z,0.00
2022-10-26T00:35:11.883Z,0.00
2022-10-26T00:36:05.420Z,0.00
2022-10-26T00:37:04.404Z,0.00
2022-10-26T00:38:04.406Z,0.00
2022-10-26T00:39:04.391Z,0.00
2022-10-26T00:40:04.382Z,0.00
2022-10-26T00:41:04.386Z,0.00
2022-10-26T00:42:04.357Z,0.00
2022-10-26T00:43:04.340Z,0.00
2022-10-26T00:44:04.336Z,0.00
2022-10-26T00:45:04.316Z,0.00
2022-10-26T00:46:04.318Z,0.00
2022-10-26T00:47:04.341Z,0.00
2022-10-26T00:48:04.294Z,0.00
2022-10-26T00:49:04.277Z,0.00
2022-10-26T00:50:04.294Z,0.00
2022-10-26T00:51:04.292Z,0.00
2022-10-26T00:52:04.247Z,0.00
2022-10-26T00:53:04.258Z,0.00
2022-10-26T00:54:04.255Z,0.00
2022-10-26T00:55:04.234Z,0.00
2022-10-26T00:56:04.218Z,0.00
2022-10-26T00:57:04.189Z,0.00
2022-10-26T00:58:04.209Z,0.00
2022-10-26T00:59:04.187Z,0.00
2022-10-26T01:00:04.159Z,0.00
2022-10-26T01:01:04.227Z,0.00
2022-10-26T01:02:04.177Z,0.00
2022-10-26T01:03:04.130Z,0.00
2022-10-26T01:04:04.273Z,0.00
2022-10-26T01:05:04.109Z,0.00
2022-10-26T01:06:04.100Z,0.00
2022-10-26T01:07:04.087Z,0.00
2022-10-26T01:08:04.071Z,0.00
2022-10-26T01:09:04.111Z,0.00
2022-10-26T01:10:04.092Z,0.00
2022-10-26T01:11:04.040Z,0.00
2022-10-26T01:12:04.040Z,0.00
2022-10-26T01:13:04.002Z,0.00
2022-10-26T01:14:04.012Z,0.00
2022-10-26T01:15:04.029Z,0.00
2022-10-26T01:16:03.979Z,0.00
2022-10-26T01:18:03.970Z,0.00
2022-10-26T01:19:03.953Z,0.00
2022-10-26T01:20:03.923Z,0.00
2022-10-26T01:21:03.977Z,0.00
2022-10-26T01:22:03.942Z,0.00
2022-10-26T01:23:03.901Z,0.00
2022-10-26T01:24:03.892Z,0.00
2022-10-26T01:25:03.884Z,0.00
2022-10-26T01:26:03.872Z,0.00
2022-10-26T01:27:03.883Z,0.00
2022-10-26T01:28:03.835Z,0.00
2022-10-26T01:29:03.833Z,0.00
2022-10-26T01:30:03.859Z,0.00
2022-10-26T01:31:03.814Z,0.00
2022-10-26T01:32:03.808Z,0.00
2022-10-26T01:33:03.923Z,0.00
2022-10-26T01:34:03.774Z,0.00
2022-10-26T01:35:03.769Z,0.00
2022-10-26T01:36:03.745Z,0.00
2022-10-26T01:37:03.736Z,0.00
2022-10-26T01:38:03.764Z,0.00
2022-10-26T01:39:03.793Z,0.00
2022-10-26T01:40:03.709Z,0.00
2022-10-26T01:41:03.727Z,0.00
2022-10-26T01:42:03.696Z,0.00
2022-10-26T01:43:03.676Z,0.00
2022-10-26T01:44:03.679Z,0.00
2022-10-26T01:45:03.676Z,0.00
2022-10-26T01:46:03.647Z,0.00
2022-10-26T01:47:03.636Z,0.00
2022-10-26T01:48:03.638Z,0.00
2022-10-26T01:49:03.627Z,0.00
2022-10-26T01:50:03.623Z,0.00
2022-10-26T01:51:03.830Z,0.00
2022-10-26T01:52:03.568Z,0.00
2022-10-26T01:53:03.547Z,0.00
2022-10-26T01:54:03.582Z,0.00
2022-10-26T01:55:03.540Z,0.00
2022-10-26T01:56:03.556Z,0.00
2022-10-26T01:57:03.548Z,0.00
2022-10-26T01:58:03.523Z,0.00
2022-10-26T01:59:03.509Z,0.00
2022-10-26T02:00:03.499Z,0.00
2022-10-26T02:01:03.580Z,0.00
2022-10-26T02:02:03.471Z,0.00
2022-10-26T02:03:03.486Z,0.00
2022-10-26T02:04:03.499Z,0.00
2022-10-26T02:05:03.418Z,0.00
2022-10-26T02:06:03.408Z,0.00
2022-10-26T02:07:03.424Z,0.00
2022-10-26T02:08:03.395Z,0.00
2022-10-26T02:09:03.439Z,0.00
2022-10-26T02:10:03.369Z,0.00
2022-10-26T02:11:03.341Z,0.00
2022-10-26T02:12:03.341Z,0.00
2022-10-26T02:13:03.320Z,0.00
2022-10-26T02:14:03.380Z,0.00
2022-10-26T02:15:03.301Z,0.00
2022-10-26T02:16:03.317Z,0.00
2022-10-26T02:17:03.281Z,0.00
2022-10-26T02:18:03.268Z,0.00
2022-10-26T02:19:03.278Z,0.00
2022-10-26T02:20:03.294Z,0.00
2022-10-26T02:21:03.246Z,0.00
2022-10-26T02:22:03.230Z,0.00
2022-10-26T02:23:03.224Z,0.00
2022-10-26T02:24:03.300Z,0.00
2022-10-26T02:25:03.193Z,0.00
2022-10-26T02:26:03.264Z,0.00
2022-10-26T02:27:03.204Z,0.00
2022-10-26T02:28:03.173Z,0.00
2022-10-26T02:29:03.152Z,0.00
2022-10-26T02:30:03.163Z,0.00
2022-10-26T02:31:03.134Z,0.00
2022-10-26T02:32:03.145Z,0.00
2022-10-26T02:33:03.188Z,0.00
2022-10-26T02:34:03.128Z,0.00
2022-10-26T02:35:03.086Z,0.00
2022-10-26T02:36:03.066Z,0.00
2022-10-26T02:37:03.059Z,0.00
2022-10-26T02:38:03.078Z,0.00
2022-10-26T02:39:03.013Z,0.00
2022-10-26T02:40:03.034Z,0.00
2022-10-26T02:41:02.995Z,0.00
2022-10-26T02:42:02.986Z,0.00
2022-10-26T02:43:02.996Z,0.00
2022-10-26T02:44:02.978Z,0.00
2022-10-26T02:45:02.962Z,0.00
2022-10-26T02:46:02.946Z,0.00
2022-10-26T02:47:02.969Z,0.00
2022-10-26T02:48:02.933Z,0.00
2022-10-26T02:49:02.952Z,0.00
2022-10-26T02:50:02.916Z,0.00
2022-10-26T02:51:02.891Z,0.00
2022-10-26T02:52:02.882Z,0.00
2022-10-26T02:53:02.866Z,0.00
2022-10-26T02:54:02.857Z,0.00
2022-10-26T02:55:02.866Z,0.00
2022-10-26T02:56:02.828Z,0.00
2022-10-26T02:57:02.816Z,0.00
2022-10-26T02:58:02.808Z,0.00
2022-10-26T02:59:02.798Z,0.00
2022-10-26T03:00:02.900Z,0.00
2022-10-26T03:01:02.991Z,0.00
2022-10-26T03:02:02.757Z,0.00
2022-10-26T03:03:02.749Z,0.00
2022-10-26T03:04:02.788Z,0.00
2022-10-26T03:05:02.725Z,0.00
2022-10-26T03:06:02.787Z,0.00
2022-10-26T03:07:02.707Z,0.00
2022-10-26T03:08:02.691Z,0.00
2022-10-26T03:09:02.679Z,0.00
2022-10-26T03:10:02.669Z,0.00
2022-10-26T03:11:02.670Z,0.00
2022-10-26T03:12:02.664Z,0.00
2022-10-26T03:13:02.631Z,0.00
2022-10-26T03:14:02.620Z,0.00
2022-10-26T03:15:02.628Z,0.00
2022-10-26T03:16:02.619Z,0.00
2022-10-26T03:17:02.629Z,0.00
2022-10-26T03:18:02.585Z,0.00
2022-10-26T03:19:02.586Z,0.00
2022-10-26T03:20:02.555Z,0.00
2022-10-26T03:21:02.576Z,0.00
2022-10-26T03:22:02.530Z,0.00
2022-10-26T03:23:02.550Z,0.00
2022-10-26T03:24:02.848Z,0.00
2022-10-26T03:25:02.581Z,0.00
2022-10-26T03:26:02.485Z,0.00
2022-10-26T03:27:02.700Z,0.00
2022-10-26T03:28:02.516Z,0.00
2022-10-26T03:29:02.472Z,0.00
2022-10-26T03:30:02.448Z,0.00
2022-10-26T03:31:02.431Z,0.00
2022-10-26T03:32:02.418Z,0.00
2022-10-26T03:33:02.411Z,0.00
2022-10-26T03:34:02.435Z,0.00
2022-10-26T03:35:02.391Z,0.00
2022-10-26T03:36:02.381Z,0.00
2022-10-26T03:37:02.369Z,0.00
2022-10-26T03:38:02.342Z,0.00
2022-10-26T03:39:02.372Z,0.00
2022-10-26T03:40:02.363Z,0.00
2022-10-26T03:41:02.326Z,0.00
2022-10-26T03:42:02.305Z,0.00
2022-10-26T03:43:02.341Z,0.00
2022-10-26T03:44:02.275Z,0.00
2022-10-26T03:45:02.302Z,0.00
2022-10-26T03:46:02.286Z,0.00
2022-10-26T03:47:02.249Z,0.00
2022-10-26T03:48:02.236Z,0.00
2022-10-26T03:49:02.226Z,0.00
2022-10-26T03:50:02.312Z,0.00
2022-10-26T03:51:02.225Z,0.00
2022-10-26T03:52:02.186Z,0.00
2022-10-26T03:53:02.178Z,0.00
2022-10-26T03:54:02.163Z,0.00
2022-10-26T03:55:02.147Z,0.00
2022-10-26T03:56:02.156Z,0.00
2022-10-26T03:57:02.166Z,0.00
2022-10-26T03:58:02.124Z,0.00
2022-10-26T03:59:02.109Z,0.00
2022-10-26T04:00:02.101Z,0.00
2022-10-26T04:01:02.087Z,0.00
2022-10-26T04:02:02.076Z,0.00
2022-10-26T04:03:02.080Z,0.00
2022-10-26T04:04:02.129Z,0.00
2022-10-26T04:05:02.041Z,0.00
2022-10-26T04:06:02.028Z,0.00
2022-10-26T04:07:02.026Z,0.00
2022-10-26T04:08:02.028Z,0.00
2022-10-26T04:09:02.000Z,0.00
2022-10-26T04:10:01.970Z,0.00
2022-10-26T04:11:03.927Z,0.00
2022-10-26T04:12:01.967Z,0.00
2022-10-26T04:13:01.952Z,0.00
2022-10-26T04:14:01.980Z,0.00
2022-10-26T04:16:01.909Z,0.00
2022-10-26T04:17:01.900Z,0.00
2022-10-26T04:18:01.897Z,0.00
2022-10-26T04:19:01.879Z,0.00
2022-10-26T04:20:01.894Z,0.00
2022-10-26T04:21:01.883Z,0.00
2022-10-26T04:22:01.886Z,0.00
2022-10-26T04:23:01.867Z,0.00
2022-10-26T04:24:01.819Z,0.00
2022-10-26T04:25:01.822Z,0.00
2022-10-26T04:26:01.943Z,0.00
2022-10-26T04:27:01.791Z,0.00
2022-10-26T04:28:01.786Z,0.00
2022-10-26T04:29:01.762Z,0.00
2022-10-26T04:30:01.764Z,0.00
2022-10-26T04:31:01.763Z,0.00
2022-10-26T04:32:01.752Z,0.00
2022-10-26T04:33:01.712Z,0.00
2022-10-26T04:34:01.704Z,0.00
2022-10-26T04:35:01.703Z,0.00
2022-10-26T04:36:01.723Z,0.00
2022-10-26T04:37:01.710Z,0.00
2022-10-26T04:38:01.652Z,0.00
2022-10-26T04:39:01.657Z,0.00
2022-10-26T04:40:01.719Z,0.00
2022-10-26T04:41:01.656Z,0.00
2022-10-26T04:42:01.626Z,0.00
2022-10-26T04:43:01.625Z,0.00
2022-10-26T04:44:01.594Z,0.00
2022-10-26T04:45:01.595Z,0.00
2022-10-26T04:46:01.573Z,0.00
2022-10-26T04:47:01.566Z,0.00
2022-10-26T04:48:01.573Z,0.00
2022-10-26T04:49:01.542Z,0.00
2022-10-26T04:50:01.522Z,0.00
2022-10-26T04:51:01.531Z,0.00
2022-10-26T04:52:01.499Z,0.00
2022-10-26T04:53:01.485Z,0.00
2022-10-26T04:54:01.518Z,0.00
2022-10-26T04:55:01.466Z,0.00
2022-10-26T04:56:01.454Z,0.00
2022-10-26T04:57:01.436Z,0.00
2022-10-26T04:58:02.078Z,0.00
2022-10-26T04:59:01.433Z,0.00
2022-10-26T05:00:01.447Z,0.00
2022-10-26T05:01:01.447Z,0.00
2022-10-26T05:02:01.502Z,0.00
2022-10-26T05:03:01.386Z,0.00
2022-10-26T05:04:01.363Z,0.00
2022-10-26T05:05:01.369Z,0.00
2022-10-26T05:06:01.375Z,0.00
2022-10-26T05:07:01.327Z,0.00
2022-10-26T05:08:01.320Z,0.00
2022-10-26T05:09:01.299Z,0.00
2022-10-26T05:10:01.289Z,0.00
2022-10-26T05:11:01.281Z,0.00
2022-10-26T05:12:01.311Z,0.00
2022-10-26T05:13:01.279Z,0.00
2022-10-26T05:14:01.247Z,0.00
2022-10-26T05:15:03.947Z,0.00
2022-10-26T05:16:02.224Z,0.00
2022-10-26T05:17:01.210Z,0.00
2022-10-26T05:18:01.257Z,0.00
2022-10-26T05:19:01.190Z,0.00
2022-10-26T05:20:01.196Z,0.00
2022-10-26T05:21:01.173Z,0.00
2022-10-26T05:22:01.164Z,0.00
2022-10-26T05:23:01.262Z,0.00
2022-10-26T05:24:01.140Z,0.00
2022-10-26T05:25:01.132Z,0.00
2022-10-26T05:26:01.112Z,0.00
2022-10-26T05:27:01.099Z,0.00
2022-10-26T05:28:01.081Z,0.00
2022-10-26T05:29:01.092Z,0.00
2022-10-26T05:30:01.147Z,0.00
2022-10-26T05:31:01.042Z,0.00
2022-10-26T05:32:01.043Z,0.00
2022-10-26T05:33:01.033Z,0.00
2022-10-26T05:34:01.051Z,0.00
2022-10-26T05:35:01.011Z,0.00
2022-10-26T05:36:00.993Z,0.00
2022-10-26T05:37:00.984Z,0.00
2022-10-26T05:38:00.984Z,0.00
2022-10-26T05:39:00.955Z,0.00
2022-10-26T05:40:00.985Z,0.00
2022-10-26T05:41:00.922Z,0.00
2022-10-26T05:42:00.923Z,0.00
2022-10-26T05:43:00.911Z,0.00
2022-10-26T05:44:00.905Z,0.00
2022-10-26T05:45:00.925Z,0.00
2022-10-26T05:46:00.994Z,0.00
2022-10-26T05:47:00.863Z,0.00
2022-10-26T05:48:02.836Z,0.00
2022-10-26T05:49:00.881Z,0.00
2022-10-26T05:50:00.847Z,0.00
2022-10-26T05:51:00.892Z,0.00
2022-10-26T05:52:00.817Z,0.00
2022-10-26T05:53:00.800Z,0.00
2022-10-26T05:54:00.786Z,0.00
2022-10-26T05:55:00.811Z,0.00
2022-10-26T05:56:00.799Z,0.00
2022-10-26T05:57:00.761Z,0.00
2022-10-26T05:58:00.756Z,0.00
2022-10-26T05:59:00.745Z,0.00
2022-10-26T06:00:00.746Z,0.00
2022-10-26T06:01:00.708Z,0.00
2022-10-26T06:02:00.816Z,0.00
2022-10-26T06:03:00.824Z,0.00
2022-10-26T06:04:00.741Z,0.00
2022-10-26T06:05:00.726Z,0.00
2022-10-26T06:06:02.757Z,0.00
2022-10-26T06:07:00.690Z,0.00
2022-10-26T06:08:00.649Z,0.00
2022-10-26T06:09:00.621Z,0.00
2022-10-26T06:10:00.680Z,0.00
2022-10-26T06:11:00.629Z,0.00
2022-10-26T06:12:00.577Z,0.00
2022-10-26T06:13:00.599Z,0.00
2022-10-26T06:14:00.568Z,0.00
2022-10-26T06:15:00.586Z,0.00
2022-10-26T06:16:00.542Z,0.00
2022-10-26T06:17:00.520Z,0.00
2022-10-26T06:18:00.556Z,0.00
2022-10-26T06:19:02.156Z,5.62
2022-10-26T06:20:00.579Z,5.62
2022-10-26T06:21:00.501Z,5.62
2022-10-26T06:22:00.490Z,5.62
2022-10-26T06:23:00.491Z,5.62
2022-10-26T06:24:00.524Z,5.62
2022-10-26T06:25:00.454Z,5.62
2022-10-26T06:26:00.469Z,5.62
2022-10-26T06:27:00.444Z,5.62
2022-10-26T06:28:00.400Z,5.62
2022-10-26T06:29:00.420Z,5.62
2022-10-26T06:30:00.422Z,5.62
2022-10-26T06:31:00.370Z,5.62
2022-10-26T06:32:00.351Z,5.62
2022-10-26T06:33:05.994Z,5.62
2022-10-26T06:34:01.336Z,5.62
2022-10-26T06:35:03.690Z,5.62
2022-10-26T06:36:01.342Z,5.62
2022-10-26T06:37:00.314Z,5.62
2022-10-26T06:38:00.306Z,5.62
2022-10-26T06:39:00.273Z,5.62
2022-10-26T06:40:00.264Z,11.25
2022-10-26T06:41:00.265Z,11.25
2022-10-26T06:42:00.293Z,11.25
2022-10-26T06:43:00.245Z,11.25
2022-10-26T06:44:00.251Z,11.25
2022-10-26T06:45:00.193Z,11.25
2022-10-26T06:46:00.184Z,11.25
2022-10-26T06:47:00.179Z,11.25
2022-10-26T06:48:00.195Z,11.25
2022-10-26T06:49:00.144Z,11.25
2022-10-26T06:50:00.162Z,11.25
2022-10-26T06:51:00.135Z,11.25
2022-10-26T06:52:00.128Z,11.25
2022-10-26T06:53:00.118Z,11.25
2022-10-26T06:54:00.143Z,11.25
2022-10-26T06:55:00.085Z,11.25
2022-10-26T06:56:00.089Z,11.25
2022-10-26T06:57:00.056Z,11.25
2022-10-26T06:58:00.070Z,16.88
2022-10-26T06:59:03.356Z,16.88
2022-10-26T07:00:01.058Z,16.88
2022-10-26T07:01:00.007Z,16.88
2022-10-26T07:02:02.896Z,16.88
2022-10-26T07:03:01.050Z,16.88
2022-10-26T07:03:59.997Z,16.88
2022-10-26T07:04:59.968Z,16.88
2022-10-26T07:05:59.983Z,16.88
2022-10-26T07:06:59.950Z,16.88
2022-10-26T07:07:59.934Z,16.88
2022-10-26T07:08:59.918Z,16.88
2022-10-26T07:09:59.907Z,16.88
2022-10-26T07:10:59.928Z,16.88
2022-10-26T07:11:59.898Z,16.88
2022-10-26T07:12:59.868Z,16.88
2022-10-26T07:13:59.859Z,16.88
2022-10-26T07:14:59.889Z,22.50
2022-10-26T07:15:59.849Z,22.50
2022-10-26T07:16:59.869Z,22.50
2022-10-26T07:17:59.831Z,22.50
2022-10-26T07:18:59.810Z,22.50
2022-10-26T07:19:59.790Z,28.12
2022-10-26T07:20:59.783Z,28.12
2022-10-26T07:21:59.771Z,28.12
2022-10-26T07:22:59.779Z,28.12
2022-10-26T07:23:59.761Z,33.75
2022-10-26T07:25:02.108Z,33.75
2022-10-26T07:26:00.031Z,33.75
2022-10-26T07:26:59.703Z,33.75
2022-10-26T07:27:59.733Z,33.75
2022-10-26T07:28:59.698Z,33.75
2022-10-26T07:29:59.682Z,39.38
2022-10-26T07:30:59.684Z,39.38
2022-10-26T07:31:59.663Z,39.38
2022-10-26T07:32:59.636Z,45.00
2022-10-26T07:33:59.664Z,45.00
2022-10-26T07:34:59.614Z,45.00
2022-10-26T07:35:59.602Z,50.62
2022-10-26T07:36:59.603Z,50.62
2022-10-26T07:37:59.612Z,50.62
2022-10-26T07:38:59.573Z,50.62
2022-10-26T07:40:04.024Z,50.62
2022-10-26T07:41:00.557Z,50.62
2022-10-26T07:41:59.534Z,50.62
2022-10-26T07:42:59.579Z,50.62
2022-10-26T07:43:59.584Z,50.62
2022-10-26T07:44:59.504Z,50.62
2022-10-26T07:45:59.517Z,50.62
2022-10-26T07:46:59.504Z,50.62
2022-10-26T07:47:59.483Z,50.62
2022-10-26T07:48:59.454Z,50.62
2022-10-26T07:49:59.485Z,50.62
2022-10-26T07:50:59.456Z,50.62
2022-10-26T07:51:59.432Z,50.62
2022-10-26T07:52:59.416Z,50.62
2022-10-26T07:53:59.407Z,50.62
2022-10-26T07:54:59.386Z,50.62
2022-10-26T07:55:59.404Z,50.62
2022-10-26T07:56:59.477Z,50.62
2022-10-26T07:57:59.730Z,50.62
2022-10-26T07:58:59.361Z,50.62
2022-10-26T07:59:59.326Z,56.25
2022-10-26T08:00:59.366Z,56.25
2022-10-26T08:01:59.373Z,61.88
2022-10-26T08:02:59.338Z,61.88
2022-10-26T08:03:59.289Z,67.50
2022-10-26T08:04:59.284Z,73.12
2022-10-26T08:05:59.271Z,73.12
2022-10-26T08:06:59.267Z,73.12
2022-10-26T08:07:59.248Z,73.12
2022-10-26T08:08:59.262Z,73.12
2022-10-26T08:09:59.222Z,73.12
2022-10-26T08:10:59.220Z,67.50
2022-10-26T08:11:59.209Z,67.50
2022-10-26T08:12:59.195Z,67.50
2022-10-26T08:13:59.249Z,67.50
2022-10-26T08:14:59.184Z,61.88
2022-10-26T08:15:59.181Z,61.88
2022-10-26T08:16:59.151Z,61.88
2022-10-26T08:17:59.131Z,67.50
2022-10-26T08:18:59.144Z,67.50
2022-10-26T08:19:59.139Z,73.12
2022-10-26T08:21:05.186Z,73.12
2022-10-26T08:22:00.091Z,78.75
2022-10-26T08:22:59.085Z,78.75
2022-10-26T08:23:59.110Z,78.75
2022-10-26T08:24:59.081Z,78.75
2022-10-26T08:25:59.042Z,78.75
2022-10-26T08:26:59.041Z,78.75
2022-10-26T08:27:59.024Z,78.75
2022-10-26T08:28:59.023Z,78.75
2022-10-26T08:29:59.022Z,78.75
2022-10-26T08:30:59.009Z,78.75
2022-10-26T08:31:58.972Z,78.75
2022-10-26T08:32:58.963Z,78.75
2022-10-26T08:33:58.952Z,78.75
2022-10-26T08:34:58.943Z,73.12
2022-10-26T08:35:58.953Z,73.12
2022-10-26T08:36:58.923Z,73.12
2022-10-26T08:37:58.904Z,67.50
2022-10-26T08:40:00.722Z,67.50
2022-10-26T08:40:58.930Z,67.50
2022-10-26T08:41:58.896Z,67.50
2022-10-26T08:42:58.846Z,73.12
2022-10-26T08:43:58.847Z,73.12
2022-10-26T08:44:58.825Z,78.75
2022-10-26T08:45:58.817Z,78.75
2022-10-26T08:46:58.805Z,84.38
2022-10-26T08:47:58.817Z,84.38
2022-10-26T08:48:58.788Z,84.38
2022-10-26T08:49:58.769Z,90.00
2022-10-26T08:50:58.757Z,90.00
2022-10-26T08:51:58.755Z,90.00
2022-10-26T08:52:58.771Z,90.00
2022-10-26T08:53:58.727Z,90.00
2022-10-26T08:54:58.721Z,90.00
2022-10-26T08:55:58.705Z,90.00
2022-10-26T08:56:58.698Z,90.00
2022-10-26T08:57:58.688Z,90.00
2022-10-26T08:58:58.711Z,90.00
2022-10-26T08:59:58.686Z,90.00
2022-10-26T09:00:58.696Z,90.00
2022-10-26T09:01:58.664Z,84.38
2022-10-26T09:02:58.619Z,84.38
2022-10-26T09:03:58.635Z,84.38
2022-10-26T09:04:58.633Z,84.38
2022-10-26T09:05:58.593Z,84.38
2022-10-26T09:06:58.579Z,84.38
2022-10-26T09:07:58.559Z,84.38
2022-10-26T09:08:58.560Z,84.38
2022-10-26T09:09:58.571Z,84.38
2022-10-26T09:10:58.582Z,84.38
2022-10-26T09:11:58.522Z,112.50
2022-10-26T09:12:58.512Z,90.00
2022-10-26T09:13:59.893Z,95.62
2022-10-26T09:14:58.502Z,129.38
2022-10-26T09:15:58.501Z,129.38
2022-10-26T09:16:58.471Z,101.25
2022-10-26T09:17:58.463Z,118.12
2022-10-26T09:19:00.319Z,112.50
2022-10-26T09:19:58.442Z,95.62
2022-10-26T09:20:58.526Z,95.62
2022-10-26T09:21:58.412Z,95.62
2022-10-26T09:22:58.406Z,95.62
2022-10-26T09:23:58.399Z,101.25
2022-10-26T09:24:58.375Z,101.25
2022-10-26T09:25:58.374Z,101.25
2022-10-26T09:26:58.404Z,106.88
2022-10-26T09:27:58.357Z,112.50
2022-10-26T09:28:58.337Z,112.50
2022-10-26T09:29:58.322Z,112.50
2022-10-26T09:30:58.324Z,118.12
2022-10-26T09:31:58.375Z,118.12
2022-10-26T09:32:58.308Z,118.12
2022-10-26T09:33:58.284Z,123.75
2022-10-26T09:34:58.277Z,129.38
2022-10-26T09:35:58.288Z,135.00
2022-10-26T09:36:58.958Z,135.00
2022-10-26T09:37:58.257Z,185.62
2022-10-26T09:38:58.219Z,140.62
2022-10-26T09:39:58.215Z,135.00
2022-10-26T09:40:58.196Z,135.00
2022-10-26T09:41:58.206Z,123.75
2022-10-26T09:42:58.227Z,123.75
2022-10-26T09:43:58.208Z,123.75
2022-10-26T09:44:58.147Z,123.75
2022-10-26T09:45:58.185Z,118.12
2022-10-26T09:46:58.131Z,118.12
2022-10-26T09:47:58.123Z,118.12
2022-10-26T09:48:58.164Z,112.50
2022-10-26T09:49:58.088Z,146.25
2022-10-26T09:51:01.972Z,191.25
2022-10-26T09:51:59.112Z,123.75
2022-10-26T09:52:58.067Z,196.88
2022-10-26T09:53:58.039Z,123.75
2022-10-26T09:54:58.070Z,174.38
2022-10-26T09:55:58.132Z,180.00
2022-10-26T09:56:58.011Z,118.12
2022-10-26T09:57:57.989Z,180.00
2022-10-26T09:58:57.979Z,106.88
2022-10-26T09:59:57.982Z,129.38
2022-10-26T10:00:57.991Z,101.25
2022-10-26T10:01:58.058Z,174.38
2022-10-26T10:02:58.033Z,174.38
2022-10-26T10:03:57.932Z,174.38
2022-10-26T10:04:57.914Z,174.38
2022-10-26T10:05:57.923Z,174.38
2022-10-26T10:06:57.922Z,174.38
2022-10-26T10:07:57.902Z,180.00
2022-10-26T10:08:57.864Z,180.00
2022-10-26T10:09:57.862Z,185.62
2022-10-26T10:10:57.852Z,185.62
2022-10-26T10:11:57.864Z,191.25
2022-10-26T10:12:57.847Z,185.62
2022-10-26T10:13:57.813Z,185.62
2022-10-26T10:14:57.810Z,191.25
2022-10-26T10:15:57.896Z,191.25
2022-10-26T10:16:57.776Z,191.25
2022-10-26T10:17:58.029Z,191.25
2022-10-26T10:18:57.905Z,191.25
2022-10-26T10:19:57.754Z,191.25
2022-10-26T10:20:57.726Z,191.25
2022-10-26T10:21:57.754Z,191.25
2022-10-26T10:22:57.716Z,191.25
2022-10-26T10:23:57.726Z,191.25
2022-10-26T10:24:57.715Z,191.25
2022-10-26T10:25:57.674Z,191.25
2022-10-26T10:26:57.670Z,191.25
2022-10-26T10:27:57.668Z,191.25
2022-10-26T10:28:57.636Z,191.25
2022-10-26T10:30:01.346Z,191.25
2022-10-26T10:30:58.608Z,191.25
2022-10-26T10:31:57.615Z,191.25
2022-10-26T10:32:57.598Z,191.25
2022-10-26T10:33:57.587Z,191.25
2022-10-26T10:34:57.624Z,196.88
2022-10-26T10:35:57.560Z,196.88
2022-10-26T10:36:57.566Z,191.25
2022-10-26T10:37:57.549Z,191.25
2022-10-26T10:38:57.528Z,196.88
2022-10-26T10:39:57.527Z,196.88
2022-10-26T10:40:57.644Z,202.50
2022-10-26T10:41:57.497Z,202.50
2022-10-26T10:42:57.478Z,118.12
2022-10-26T10:43:57.471Z,118.12
2022-10-26T10:44:57.454Z,135.00
2022-10-26T10:45:59.550Z,185.62
2022-10-26T10:46:57.457Z,140.62
2022-10-26T10:47:57.441Z,129.38
2022-10-26T10:48:57.421Z,123.75
2022-10-26T10:49:57.400Z,123.75
2022-10-26T10:50:57.401Z,123.75
2022-10-26T10:51:57.397Z,123.75
2022-10-26T10:52:57.399Z,129.38
2022-10-26T10:53:57.364Z,135.00
2022-10-26T10:54:57.341Z,135.00
2022-10-26T10:55:57.364Z,135.00
2022-10-26T10:56:57.320Z,129.38
2022-10-26T10:57:57.342Z,123.75
2022-10-26T10:58:57.302Z,129.38
2022-10-26T10:59:57.293Z,129.38
2022-10-26T11:00:57.274Z,123.75
2022-10-26T11:01:57.430Z,123.75
2022-10-26T11:02:57.269Z,123.75
2022-10-26T11:03:57.264Z,123.75
2022-10-26T11:04:57.236Z,123.75
2022-10-26T11:05:57.216Z,123.75
2022-10-26T11:06:57.228Z,129.38
2022-10-26T11:07:57.193Z,129.38
2022-10-26T11:08:57.196Z,129.38
2022-10-26T11:09:57.189Z,135.00
2022-10-26T11:10:57.175Z,135.00
2022-10-26T11:11:57.146Z,140.62
2022-10-26T11:12:57.137Z,140.62
2022-10-26T11:13:57.135Z,146.25
2022-10-26T11:14:57.147Z,151.88
2022-10-26T11:15:57.097Z,163.12
2022-10-26T11:16:57.088Z,163.12
2022-10-26T11:17:57.088Z,168.75
2022-10-26T11:18:57.196Z,168.75
2022-10-26T11:19:57.067Z,168.75
2022-10-26T11:21:57.058Z,202.50
2022-10-26T11:22:57.045Z,247.50
2022-10-26T11:23:57.009Z,236.25
2022-10-26T11:24:56.998Z,236.25
2022-10-26T11:25:57.030Z,230.62
2022-10-26T11:26:56.992Z,225.00
2022-10-26T11:27:56.960Z,213.75
2022-10-26T11:28:56.960Z,208.12
2022-10-26T11:29:56.942Z,202.50
2022-10-26T11:30:56.968Z,202.50
2022-10-26T11:31:56.944Z,140.62
2022-10-26T11:32:56.904Z,118.12
2022-10-26T11:34:56.894Z,123.75
2022-10-26T11:35:56.883Z,123.75
2022-10-26T11:36:56.866Z,123.75
2022-10-26T11:37:56.922Z,168.75
2022-10-26T11:38:57.618Z,118.12
2022-10-26T11:39:56.839Z,112.50
2022-10-26T11:40:56.824Z,106.88
2022-10-26T11:41:56.814Z,106.88
2022-10-26T11:42:56.804Z,112.50
2022-10-26T11:43:56.834Z,112.50
2022-10-26T11:44:56.775Z,112.50
2022-10-26T11:45:56.815Z,123.75
2022-10-26T11:46:56.745Z,129.38
2022-10-26T11:47:56.758Z,168.75
2022-10-26T11:48:56.726Z,151.88
2022-10-26T11:49:56.767Z,129.38
2022-10-26T11:50:56.707Z,129.38
2022-10-26T11:51:56.691Z,118.12
2022-10-26T11:52:56.706Z,112.50
2022-10-26T11:53:56.666Z,112.50
2022-10-26T11:54:56.660Z,112.50
2022-10-26T11:55:56.684Z,129.38
2022-10-26T11:56:56.629Z,112.50
2022-10-26T11:57:56.616Z,106.88
2022-10-26T11:58:56.677Z,106.88
2022-10-26T11:59:56.620Z,112.50
2022-10-26T12:00:56.593Z,106.88
2022-10-26T12:01:56.598Z,112.50
2022-10-26T12:02:56.565Z,106.88
2022-10-26T12:03:56.549Z,118.12
2022-10-26T12:04:56.573Z,112.50
2022-10-26T12:05:56.529Z,112.50
2022-10-26T12:06:56.771Z,112.50
2022-10-26T12:07:56.511Z,112.50
2022-10-26T12:08:56.509Z,112.50
2022-10-26T12:09:56.517Z,118.12
2022-10-26T12:10:56.551Z,118.12
2022-10-26T12:11:56.478Z,118.12
2022-10-26T12:12:56.498Z,123.75
2022-10-26T12:13:56.440Z,123.75
2022-10-26T12:14:56.421Z,129.38
2022-10-26T12:16:03.679Z,129.38
2022-10-26T12:16:57.415Z,129.38
2022-10-26T12:17:56.402Z,140.62
2022-10-26T12:18:56.918Z,140.62
2022-10-26T12:19:56.382Z,140.62
2022-10-26T12:20:56.402Z,140.62
2022-10-26T12:21:56.348Z,140.62
2022-10-26T12:22:56.352Z,140.62
2022-10-26T12:23:56.324Z,140.62
2022-10-26T12:24:56.335Z,140.62
2022-10-26T12:25:56.293Z,140.62
2022-10-26T12:26:56.428Z,140.62
2022-10-26T12:27:56.356Z,140.62
2022-10-26T12:28:56.337Z,140.62
2022-10-26T12:29:59.664Z,140.62
2022-10-26T12:30:56.246Z,140.62
2022-10-26T12:31:56.299Z,140.62
2022-10-26T12:32:56.331Z,140.62
2022-10-26T12:33:57.029Z,140.62
2022-10-26T12:34:56.195Z,140.62
2022-10-26T12:35:56.316Z,163.12
2022-10-26T12:36:56.212Z,151.88
2022-10-26T12:37:56.163Z,168.75
2022-10-26T12:38:56.219Z,135.00
2022-10-26T12:39:56.227Z,163.12
2022-10-26T12:40:56.182Z,151.88
2022-10-26T12:41:56.178Z,174.38
2022-10-26T12:42:56.201Z,112.50
2022-10-26T12:43:56.121Z,112.50
2022-10-26T12:44:56.142Z,112.50
2022-10-26T12:45:56.088Z,112.50
2022-10-26T12:46:56.068Z,112.50
2022-10-26T12:47:56.079Z,112.50
2022-10-26T12:48:56.104Z,118.12
2022-10-26T12:49:56.045Z,118.12
2022-10-26T12:50:56.030Z,118.12
2022-10-26T12:51:56.092Z,118.12
2022-10-26T12:52:56.072Z,123.75
2022-10-26T12:53:56.061Z,123.75
2022-10-26T12:54:56.012Z,118.12
2022-10-26T12:55:56.041Z,118.12
2022-10-26T12:56:56.000Z,118.12
2022-10-26T12:57:55.972Z,112.50
2022-10-26T12:58:56.087Z,112.50
2022-10-26T12:59:55.936Z,118.12
2022-10-26T13:00:55.915Z,129.38
2022-10-26T13:01:55.904Z,129.38
2022-10-26T13:02:55.949Z,129.38